sensor_id;sensor_type;location;lat;lon;timestamp;P1;durP1;ratioP1;P2;durP2;ratioP2
76065;SDS011;64763;48.928;8.474;2023-06-22T00:00:41;9.43;;;6.63;;
76065;SDS011;64763;48.928;8.474;2023-06-22T00:03:07;10.27;;;7.18;;
76065;SDS011;64763;48.928;8.474;2023-06-22T00:05:33;10.25;;;7.45;;
76065;SDS011;64763;48.928;8.474;2023-06-22T00:08:01;11.55;;;7.20;;
76065;SDS011;64763;48.928;8.474;2023-06-22T00:10:32;12.32;;;7.32;;
76065;SDS011;64763;48.928;8.474;2023-06-22T00:12:57;9.50;;;7.22;;
76065;SDS011;64763;48.928;8.474;2023-06-22T00:15:23;9.98;;;6.47;;
76065;SDS011;64763;48.928;8.474;2023-06-22T00:17:49;10.57;;;6.53;;
76065;SDS011;64763;48.928;8.474;2023-06-22T00:20:15;9.27;;;7.10;;
76065;SDS011;64763;48.928;8.474;2023-06-22T00:22:41;10.95;;;6.38;;
76065;SDS011;64763;48.928;8.474;2023-06-22T00:25:08;11.00;;;6.78;;
76065;SDS011;64763;48.928;8.474;2023-06-22T00:27:33;9.13;;;6.13;;
76065;SDS011;64763;48.928;8.474;2023-06-22T00:29:59;10.70;;;6.47;;
76065;SDS011;64763;48.928;8.474;2023-06-22T00:32:25;12.30;;;7.13;;
76065;SDS011;64763;48.928;8.474;2023-06-22T00:34:50;11.50;;;6.88;;
76065;SDS011;64763;48.928;8.474;2023-06-22T00:37:15;15.45;;;8.35;;
76065;SDS011;64763;48.928;8.474;2023-06-22T00:39:41;10.25;;;8.30;;
76065;SDS011;64763;48.928;8.474;2023-06-22T00:42:08;11.40;;;8.13;;
76065;SDS011;64763;48.928;8.474;2023-06-22T00:44:33;14.63;;;7.90;;
76065;SDS011;64763;48.928;8.474;2023-06-22T00:46:59;11.60;;;8.48;;
76065;SDS011;64763;48.928;8.474;2023-06-22T00:49:25;15.00;;;9.50;;
76065;SDS011;64763;48.928;8.474;2023-06-22T00:51:50;16.63;;;9.18;;
76065;SDS011;64763;48.928;8.474;2023-06-22T00:54:16;17.15;;;10.30;;
76065;SDS011;64763;48.928;8.474;2023-06-22T00:56:49;17.67;;;9.68;;
76065;SDS011;64763;48.928;8.474;2023-06-22T00:59:17;16.40;;;10.10;;
76065;SDS011;64763;48.928;8.474;2023-06-22T01:01:43;15.93;;;10.23;;
76065;SDS011;64763;48.928;8.474;2023-06-22T01:04:08;15.40;;;10.35;;
76065;SDS011;64763;48.928;8.474;2023-06-22T01:06:35;15.57;;;10.63;;
76065;SDS011;64763;48.928;8.474;2023-06-22T01:09:17;14.75;;;10.10;;
76065;SDS011;64763;48.928;8.474;2023-06-22T01:11:45;13.70;;;10.10;;
76065;SDS011;64763;48.928;8.474;2023-06-22T01:14:18;15.40;;;10.48;;
76065;SDS011;64763;48.928;8.474;2023-06-22T01:16:48;16.17;;;11.50;;
76065;SDS011;64763;48.928;8.474;2023-06-22T01:22:01;12.90;;;9.85;;
76065;SDS011;64763;48.928;8.474;2023-06-22T01:24:30;17.50;;;11.23;;
76065;SDS011;64763;48.928;8.474;2023-06-22T01:29:51;17.67;;;10.55;;
76065;SDS011;64763;48.928;8.474;2023-06-22T01:32:18;15.82;;;10.50;;
76065;SDS011;64763;48.928;8.474;2023-06-22T01:34:44;20.02;;;11.00;;
76065;SDS011;64763;48.928;8.474;2023-06-22T01:37:11;16.05;;;11.02;;
76065;SDS011;64763;48.928;8.474;2023-06-22T01:39:36;17.42;;;10.82;;
76065;SDS011;64763;48.928;8.474;2023-06-22T01:42:02;15.90;;;10.30;;
76065;SDS011;64763;48.928;8.474;2023-06-22T01:44:28;19.02;;;10.57;;
76065;SDS011;64763;48.928;8.474;2023-06-22T01:46:53;16.40;;;10.27;;
76065;SDS011;64763;48.928;8.474;2023-06-22T01:49:19;15.75;;;10.18;;
76065;SDS011;64763;48.928;8.474;2023-06-22T01:51:45;15.88;;;10.93;;
76065;SDS011;64763;48.928;8.474;2023-06-22T01:54:10;18.45;;;10.05;;
76065;SDS011;64763;48.928;8.474;2023-06-22T01:56:36;19.05;;;10.75;;
76065;SDS011;64763;48.928;8.474;2023-06-22T02:01:35;17.85;;;11.80;;
76065;SDS011;64763;48.928;8.474;2023-06-22T02:04:04;16.48;;;11.25;;
76065;SDS011;64763;48.928;8.474;2023-06-22T02:06:33;18.30;;;10.82;;
76065;SDS011;64763;48.928;8.474;2023-06-22T02:09:02;17.27;;;10.38;;
76065;SDS011;64763;48.928;8.474;2023-06-22T02:11:40;14.07;;;9.48;;
76065;SDS011;64763;48.928;8.474;2023-06-22T02:14:06;18.77;;;11.02;;
76065;SDS011;64763;48.928;8.474;2023-06-22T02:16:32;16.05;;;10.13;;
76065;SDS011;64763;48.928;8.474;2023-06-22T02:18:57;16.48;;;11.07;;
76065;SDS011;64763;48.928;8.474;2023-06-22T02:21:28;15.48;;;10.98;;
76065;SDS011;64763;48.928;8.474;2023-06-22T02:23:54;17.40;;;11.50;;
76065;SDS011;64763;48.928;8.474;2023-06-22T02:26:19;16.30;;;11.18;;
76065;SDS011;64763;48.928;8.474;2023-06-22T02:28:44;17.63;;;11.20;;
76065;SDS011;64763;48.928;8.474;2023-06-22T02:31:11;15.85;;;10.85;;
76065;SDS011;64763;48.928;8.474;2023-06-22T02:33:36;18.15;;;10.75;;
76065;SDS011;64763;48.928;8.474;2023-06-22T02:36:01;15.35;;;10.68;;
76065;SDS011;64763;48.928;8.474;2023-06-22T02:38:30;16.70;;;10.48;;
76065;SDS011;64763;48.928;8.474;2023-06-22T02:40:58;16.00;;;10.43;;
76065;SDS011;64763;48.928;8.474;2023-06-22T02:43:23;15.93;;;10.13;;
76065;SDS011;64763;48.928;8.474;2023-06-22T02:45:49;18.33;;;10.65;;
76065;SDS011;64763;48.928;8.474;2023-06-22T02:48:14;15.50;;;11.05;;
76065;SDS011;64763;48.928;8.474;2023-06-22T02:50:39;16.20;;;10.32;;
76065;SDS011;64763;48.928;8.474;2023-06-22T02:53:05;15.60;;;9.82;;
76065;SDS011;64763;48.928;8.474;2023-06-22T02:55:30;13.20;;;10.30;;
76065;SDS011;64763;48.928;8.474;2023-06-22T02:57:56;15.02;;;10.43;;
76065;SDS011;64763;48.928;8.474;2023-06-22T03:00:22;15.88;;;9.85;;
76065;SDS011;64763;48.928;8.474;2023-06-22T03:02:48;14.38;;;9.52;;
76065;SDS011;64763;48.928;8.474;2023-06-22T03:05:14;14.77;;;10.07;;
76065;SDS011;64763;48.928;8.474;2023-06-22T03:07:46;15.90;;;10.98;;
76065;SDS011;64763;48.928;8.474;2023-06-22T03:10:12;15.73;;;9.15;;
76065;SDS011;64763;48.928;8.474;2023-06-22T03:12:38;15.80;;;10.45;;
76065;SDS011;64763;48.928;8.474;2023-06-22T03:15:05;14.55;;;9.30;;
76065;SDS011;64763;48.928;8.474;2023-06-22T03:17:31;12.68;;;9.57;;
76065;SDS011;64763;48.928;8.474;2023-06-22T03:19:56;13.57;;;10.23;;
76065;SDS011;64763;48.928;8.474;2023-06-22T03:22:22;13.30;;;9.50;;
76065;SDS011;64763;48.928;8.474;2023-06-22T03:24:47;16.02;;;9.85;;
76065;SDS011;64763;48.928;8.474;2023-06-22T03:27:12;13.05;;;9.85;;
76065;SDS011;64763;48.928;8.474;2023-06-22T03:29:38;15.63;;;9.88;;
76065;SDS011;64763;48.928;8.474;2023-06-22T03:32:03;16.38;;;9.73;;
76065;SDS011;64763;48.928;8.474;2023-06-22T03:34:31;13.27;;;9.55;;
76065;SDS011;64763;48.928;8.474;2023-06-22T03:36:58;11.82;;;9.43;;
76065;SDS011;64763;48.928;8.474;2023-06-22T03:39:24;18.38;;;10.05;;
76065;SDS011;64763;48.928;8.474;2023-06-22T03:41:49;13.00;;;9.20;;
76065;SDS011;64763;48.928;8.474;2023-06-22T03:44:14;14.48;;;9.20;;
76065;SDS011;64763;48.928;8.474;2023-06-22T03:46:40;15.02;;;9.52;;
76065;SDS011;64763;48.928;8.474;2023-06-22T03:49:05;15.13;;;9.48;;
76065;SDS011;64763;48.928;8.474;2023-06-22T03:51:30;17.38;;;9.13;;
76065;SDS011;64763;48.928;8.474;2023-06-22T03:53:56;13.68;;;9.35;;
76065;SDS011;64763;48.928;8.474;2023-06-22T03:56:22;16.85;;;9.98;;
76065;SDS011;64763;48.928;8.474;2023-06-22T03:58:47;15.38;;;9.85;;
76065;SDS011;64763;48.928;8.474;2023-06-22T04:01:12;13.02;;;9.50;;
76065;SDS011;64763;48.928;8.474;2023-06-22T04:03:38;15.10;;;9.50;;
76065;SDS011;64763;48.928;8.474;2023-06-22T04:06:04;14.38;;;9.02;;
76065;SDS011;64763;48.928;8.474;2023-06-22T04:08:29;15.25;;;8.82;;
76065;SDS011;64763;48.928;8.474;2023-06-22T04:10:57;14.15;;;9.40;;
76065;SDS011;64763;48.928;8.474;2023-06-22T04:13:22;13.38;;;9.30;;
76065;SDS011;64763;48.928;8.474;2023-06-22T04:15:47;15.43;;;8.73;;
76065;SDS011;64763;48.928;8.474;2023-06-22T04:18:13;12.63;;;8.65;;
76065;SDS011;64763;48.928;8.474;2023-06-22T04:20:38;15.95;;;8.50;;
76065;SDS011;64763;48.928;8.474;2023-06-22T04:23:04;13.95;;;9.45;;
76065;SDS011;64763;48.928;8.474;2023-06-22T04:25:29;12.02;;;8.43;;
76065;SDS011;64763;48.928;8.474;2023-06-22T04:27:57;11.73;;;8.60;;
76065;SDS011;64763;48.928;8.474;2023-06-22T04:30:23;12.88;;;8.27;;
76065;SDS011;64763;48.928;8.474;2023-06-22T04:32:48;12.30;;;7.80;;
76065;SDS011;64763;48.928;8.474;2023-06-22T04:35:23;12.07;;;7.65;;
76065;SDS011;64763;48.928;8.474;2023-06-22T04:37:49;11.48;;;8.68;;
76065;SDS011;64763;48.928;8.474;2023-06-22T04:40:14;11.73;;;7.88;;
76065;SDS011;64763;48.928;8.474;2023-06-22T04:42:40;9.88;;;7.53;;
76065;SDS011;64763;48.928;8.474;2023-06-22T04:45:05;14.88;;;8.43;;
76065;SDS011;64763;48.928;8.474;2023-06-22T04:47:31;12.05;;;8.50;;
76065;SDS011;64763;48.928;8.474;2023-06-22T04:49:56;11.77;;;7.55;;
76065;SDS011;64763;48.928;8.474;2023-06-22T04:52:22;13.65;;;7.88;;
76065;SDS011;64763;48.928;8.474;2023-06-22T04:54:50;11.38;;;7.13;;
76065;SDS011;64763;48.928;8.474;2023-06-22T04:57:20;13.05;;;7.50;;
76065;SDS011;64763;48.928;8.474;2023-06-22T04:59:46;11.40;;;7.40;;
76065;SDS011;64763;48.928;8.474;2023-06-22T05:02:11;9.55;;;7.32;;
76065;SDS011;64763;48.928;8.474;2023-06-22T05:04:36;13.18;;;8.23;;
76065;SDS011;64763;48.928;8.474;2023-06-22T05:07:03;15.75;;;7.22;;
76065;SDS011;64763;48.928;8.474;2023-06-22T05:09:29;11.73;;;7.93;;
76065;SDS011;64763;48.928;8.474;2023-06-22T05:11:55;10.75;;;7.57;;
76065;SDS011;64763;48.928;8.474;2023-06-22T05:14:24;14.80;;;7.63;;
76065;SDS011;64763;48.928;8.474;2023-06-22T05:16:50;10.32;;;7.43;;
76065;SDS011;64763;48.928;8.474;2023-06-22T05:19:17;11.90;;;8.07;;
76065;SDS011;64763;48.928;8.474;2023-06-22T05:21:42;15.10;;;8.05;;
76065;SDS011;64763;48.928;8.474;2023-06-22T05:24:07;12.00;;;7.82;;
76065;SDS011;64763;48.928;8.474;2023-06-22T05:26:33;11.52;;;7.53;;
76065;SDS011;64763;48.928;8.474;2023-06-22T05:28:59;11.98;;;7.93;;
76065;SDS011;64763;48.928;8.474;2023-06-22T05:31:26;10.90;;;7.45;;
76065;SDS011;64763;48.928;8.474;2023-06-22T05:33:52;10.88;;;7.18;;
76065;SDS011;64763;48.928;8.474;2023-06-22T05:36:18;11.25;;;7.63;;
76065;SDS011;64763;48.928;8.474;2023-06-22T05:38:45;10.20;;;7.80;;
76065;SDS011;64763;48.928;8.474;2023-06-22T05:41:10;11.15;;;7.13;;
76065;SDS011;64763;48.928;8.474;2023-06-22T05:43:36;11.80;;;6.93;;
76065;SDS011;64763;48.928;8.474;2023-06-22T05:46:01;12.07;;;7.47;;
76065;SDS011;64763;48.928;8.474;2023-06-22T05:48:27;12.18;;;7.35;;
76065;SDS011;64763;48.928;8.474;2023-06-22T05:50:52;9.07;;;6.60;;
76065;SDS011;64763;48.928;8.474;2023-06-22T05:53:18;11.73;;;7.05;;
76065;SDS011;64763;48.928;8.474;2023-06-22T05:55:44;11.05;;;7.00;;
76065;SDS011;64763;48.928;8.474;2023-06-22T05:58:09;8.68;;;6.95;;
76065;SDS011;64763;48.928;8.474;2023-06-22T06:00:34;9.73;;;7.47;;
76065;SDS011;64763;48.928;8.474;2023-06-22T06:03:00;11.55;;;6.70;;
76065;SDS011;64763;48.928;8.474;2023-06-22T06:05:29;13.25;;;7.68;;
76065;SDS011;64763;48.928;8.474;2023-06-22T06:07:55;11.90;;;7.72;;
76065;SDS011;64763;48.928;8.474;2023-06-22T06:10:20;12.13;;;7.28;;
76065;SDS011;64763;48.928;8.474;2023-06-22T06:12:46;10.82;;;6.85;;
76065;SDS011;64763;48.928;8.474;2023-06-22T06:15:11;11.15;;;6.55;;
76065;SDS011;64763;48.928;8.474;2023-06-22T06:17:44;8.82;;;6.18;;
76065;SDS011;64763;48.928;8.474;2023-06-22T06:20:13;9.77;;;7.00;;
76065;SDS011;64763;48.928;8.474;2023-06-22T06:22:38;9.23;;;6.43;;
76065;SDS011;64763;48.928;8.474;2023-06-22T06:25:04;7.95;;;6.55;;
76065;SDS011;64763;48.928;8.474;2023-06-22T06:27:30;9.52;;;6.40;;
76065;SDS011;64763;48.928;8.474;2023-06-22T06:29:56;10.55;;;6.28;;
76065;SDS011;64763;48.928;8.474;2023-06-22T06:32:21;9.57;;;6.00;;
76065;SDS011;64763;48.928;8.474;2023-06-22T06:34:47;9.95;;;6.22;;
76065;SDS011;64763;48.928;8.474;2023-06-22T06:37:12;8.85;;;6.38;;
76065;SDS011;64763;48.928;8.474;2023-06-22T06:39:38;9.52;;;6.13;;
76065;SDS011;64763;48.928;8.474;2023-06-22T06:42:04;7.28;;;5.40;;
76065;SDS011;64763;48.928;8.474;2023-06-22T06:44:30;10.35;;;5.78;;
76065;SDS011;64763;48.928;8.474;2023-06-22T06:46:55;8.35;;;5.63;;
76065;SDS011;64763;48.928;8.474;2023-06-22T06:49:20;6.35;;;4.97;;
76065;SDS011;64763;48.928;8.474;2023-06-22T06:51:46;7.70;;;4.85;;
76065;SDS011;64763;48.928;8.474;2023-06-22T06:54:11;9.38;;;5.38;;
76065;SDS011;64763;48.928;8.474;2023-06-22T06:56:37;7.60;;;5.55;;
76065;SDS011;64763;48.928;8.474;2023-06-22T06:59:02;8.68;;;6.22;;
76065;SDS011;64763;48.928;8.474;2023-06-22T07:01:27;11.57;;;5.63;;
76065;SDS011;64763;48.928;8.474;2023-06-22T07:03:58;8.75;;;5.85;;
76065;SDS011;64763;48.928;8.474;2023-06-22T07:06:24;7.03;;;5.15;;
76065;SDS011;64763;48.928;8.474;2023-06-22T07:08:54;8.32;;;5.50;;
76065;SDS011;64763;48.928;8.474;2023-06-22T07:11:20;8.43;;;6.03;;
76065;SDS011;64763;48.928;8.474;2023-06-22T07:13:45;12.02;;;6.32;;
76065;SDS011;64763;48.928;8.474;2023-06-22T07:16:10;9.90;;;6.07;;
76065;SDS011;64763;48.928;8.474;2023-06-22T07:18:36;11.40;;;5.43;;
76065;SDS011;64763;48.928;8.474;2023-06-22T07:21:01;8.32;;;5.80;;
76065;SDS011;64763;48.928;8.474;2023-06-22T07:23:28;8.32;;;5.80;;
76065;SDS011;64763;48.928;8.474;2023-06-22T07:25:54;9.70;;;5.63;;
76065;SDS011;64763;48.928;8.474;2023-06-22T07:28:19;9.73;;;5.63;;
76065;SDS011;64763;48.928;8.474;2023-06-22T07:30:44;8.23;;;5.25;;
76065;SDS011;64763;48.928;8.474;2023-06-22T07:33:10;9.57;;;5.50;;
76065;SDS011;64763;48.928;8.474;2023-06-22T07:35:35;9.43;;;5.50;;
76065;SDS011;64763;48.928;8.474;2023-06-22T07:38:00;11.80;;;5.40;;
76065;SDS011;64763;48.928;8.474;2023-06-22T07:40:26;13.18;;;6.18;;
76065;SDS011;64763;48.928;8.474;2023-06-22T07:42:51;10.13;;;5.30;;
76065;SDS011;64763;48.928;8.474;2023-06-22T07:45:18;8.52;;;5.38;;
76065;SDS011;64763;48.928;8.474;2023-06-22T07:47:43;10.07;;;5.32;;
76065;SDS011;64763;48.928;8.474;2023-06-22T07:50:08;10.10;;;5.25;;
76065;SDS011;64763;48.928;8.474;2023-06-22T07:52:34;9.63;;;4.65;;
76065;SDS011;64763;48.928;8.474;2023-06-22T07:55:00;12.13;;;5.57;;
76065;SDS011;64763;48.928;8.474;2023-06-22T07:57:26;9.63;;;4.78;;
76065;SDS011;64763;48.928;8.474;2023-06-22T07:59:57;7.70;;;5.28;;
76065;SDS011;64763;48.928;8.474;2023-06-22T08:02:23;11.27;;;5.38;;
76065;SDS011;64763;48.928;8.474;2023-06-22T08:04:49;11.35;;;5.15;;
76065;SDS011;64763;48.928;8.474;2023-06-22T08:07:14;10.05;;;5.05;;
76065;SDS011;64763;48.928;8.474;2023-06-22T08:09:42;10.95;;;5.45;;
76065;SDS011;64763;48.928;8.474;2023-06-22T08:12:11;9.15;;;5.22;;
76065;SDS011;64763;48.928;8.474;2023-06-22T08:14:38;8.23;;;5.03;;
76065;SDS011;64763;48.928;8.474;2023-06-22T08:17:04;7.63;;;5.00;;
76065;SDS011;64763;48.928;8.474;2023-06-22T08:19:30;9.13;;;4.68;;
76065;SDS011;64763;48.928;8.474;2023-06-22T08:21:55;12.60;;;5.57;;
76065;SDS011;64763;48.928;8.474;2023-06-22T08:24:21;8.95;;;5.57;;
76065;SDS011;64763;48.928;8.474;2023-06-22T08:26:46;14.10;;;5.57;;
76065;SDS011;64763;48.928;8.474;2023-06-22T08:29:11;8.70;;;5.38;;
76065;SDS011;64763;48.928;8.474;2023-06-22T08:31:37;9.75;;;5.82;;
76065;SDS011;64763;48.928;8.474;2023-06-22T08:34:02;8.90;;;5.05;;
76065;SDS011;64763;48.928;8.474;2023-06-22T08:36:28;10.48;;;5.25;;
76065;SDS011;64763;48.928;8.474;2023-06-22T08:38:57;9.57;;;5.78;;
76065;SDS011;64763;48.928;8.474;2023-06-22T08:41:27;13.90;;;5.88;;
76065;SDS011;64763;48.928;8.474;2023-06-22T08:43:53;9.50;;;5.45;;
76065;SDS011;64763;48.928;8.474;2023-06-22T08:46:18;10.85;;;5.70;;
76065;SDS011;64763;48.928;8.474;2023-06-22T08:48:48;12.68;;;6.10;;
76065;SDS011;64763;48.928;8.474;2023-06-22T08:51:13;9.65;;;5.68;;
76065;SDS011;64763;48.928;8.474;2023-06-22T08:53:39;9.38;;;5.72;;
76065;SDS011;64763;48.928;8.474;2023-06-22T08:56:04;11.77;;;5.53;;
76065;SDS011;64763;48.928;8.474;2023-06-22T08:58:30;7.78;;;5.20;;
76065;SDS011;64763;48.928;8.474;2023-06-22T09:00:55;14.20;;;5.90;;
76065;SDS011;64763;48.928;8.474;2023-06-22T09:03:20;10.35;;;5.18;;
76065;SDS011;64763;48.928;8.474;2023-06-22T09:05:46;10.00;;;5.53;;
76065;SDS011;64763;48.928;8.474;2023-06-22T09:08:11;11.35;;;6.03;;
76065;SDS011;64763;48.928;8.474;2023-06-22T09:10:36;9.50;;;5.18;;
76065;SDS011;64763;48.928;8.474;2023-06-22T09:13:02;8.30;;;5.75;;
76065;SDS011;64763;48.928;8.474;2023-06-22T09:15:27;8.13;;;4.93;;
76065;SDS011;64763;48.928;8.474;2023-06-22T09:17:52;14.45;;;6.30;;
76065;SDS011;64763;48.928;8.474;2023-06-22T09:20:19;8.43;;;5.38;;
76065;SDS011;64763;48.928;8.474;2023-06-22T09:22:45;10.93;;;5.50;;
76065;SDS011;64763;48.928;8.474;2023-06-22T09:25:10;10.00;;;5.57;;
76065;SDS011;64763;48.928;8.474;2023-06-22T09:27:36;10.00;;;6.00;;
76065;SDS011;64763;48.928;8.474;2023-06-22T09:30:01;8.43;;;6.00;;
76065;SDS011;64763;48.928;8.474;2023-06-22T09:32:28;11.88;;;6.07;;
76065;SDS011;64763;48.928;8.474;2023-06-22T09:34:53;11.82;;;5.90;;
76065;SDS011;64763;48.928;8.474;2023-06-22T09:37:19;11.63;;;6.25;;
76065;SDS011;64763;48.928;8.474;2023-06-22T09:39:44;9.63;;;6.32;;
76065;SDS011;64763;48.928;8.474;2023-06-22T09:42:10;11.55;;;6.20;;
76065;SDS011;64763;48.928;8.474;2023-06-22T09:44:35;14.02;;;6.57;;
76065;SDS011;64763;48.928;8.474;2023-06-22T09:47:00;11.30;;;6.30;;
76065;SDS011;64763;48.928;8.474;2023-06-22T09:49:26;13.52;;;6.50;;
76065;SDS011;64763;48.928;8.474;2023-06-22T09:51:51;10.85;;;5.93;;
76065;SDS011;64763;48.928;8.474;2023-06-22T09:54:17;12.00;;;6.78;;
76065;SDS011;64763;48.928;8.474;2023-06-22T09:56:42;15.38;;;6.47;;
76065;SDS011;64763;48.928;8.474;2023-06-22T09:59:08;11.02;;;5.93;;
76065;SDS011;64763;48.928;8.474;2023-06-22T10:01:33;19.20;;;7.20;;
76065;SDS011;64763;48.928;8.474;2023-06-22T10:03:58;9.43;;;6.13;;
76065;SDS011;64763;48.928;8.474;2023-06-22T10:06:24;10.85;;;6.55;;
76065;SDS011;64763;48.928;8.474;2023-06-22T10:08:50;8.15;;;5.90;;
76065;SDS011;64763;48.928;8.474;2023-06-22T10:11:16;12.63;;;6.18;;
76065;SDS011;64763;48.928;8.474;2023-06-22T10:13:41;9.98;;;6.22;;
76065;SDS011;64763;48.928;8.474;2023-06-22T10:16:07;11.98;;;6.28;;
76065;SDS011;64763;48.928;8.474;2023-06-22T10:18:32;11.48;;;6.57;;
76065;SDS011;64763;48.928;8.474;2023-06-22T10:20:58;9.20;;;6.45;;
76065;SDS011;64763;48.928;8.474;2023-06-22T10:23:24;10.32;;;5.88;;
76065;SDS011;64763;48.928;8.474;2023-06-22T10:25:49;8.23;;;6.00;;
76065;SDS011;64763;48.928;8.474;2023-06-22T10:28:15;9.05;;;5.85;;
76065;SDS011;64763;48.928;8.474;2023-06-22T10:30:40;11.13;;;6.40;;
76065;SDS011;64763;48.928;8.474;2023-06-22T10:33:06;12.60;;;6.07;;
76065;SDS011;64763;48.928;8.474;2023-06-22T10:35:32;10.27;;;6.30;;
76065;SDS011;64763;48.928;8.474;2023-06-22T10:37:58;10.15;;;6.10;;
76065;SDS011;64763;48.928;8.474;2023-06-22T10:40:23;10.13;;;6.68;;
76065;SDS011;64763;48.928;8.474;2023-06-22T10:42:48;11.38;;;6.05;;
76065;SDS011;64763;48.928;8.474;2023-06-22T10:45:15;12.55;;;6.32;;
76065;SDS011;64763;48.928;8.474;2023-06-22T10:47:40;10.02;;;6.30;;
76065;SDS011;64763;48.928;8.474;2023-06-22T10:50:07;11.30;;;6.40;;
76065;SDS011;64763;48.928;8.474;2023-06-22T10:52:33;10.90;;;5.97;;
76065;SDS011;64763;48.928;8.474;2023-06-22T10:54:58;8.27;;;6.35;;
76065;SDS011;64763;48.928;8.474;2023-06-22T10:57:23;8.90;;;6.15;;
76065;SDS011;64763;48.928;8.474;2023-06-22T10:59:49;8.95;;;6.38;;
76065;SDS011;64763;48.928;8.474;2023-06-22T11:02:14;11.75;;;6.65;;
76065;SDS011;64763;48.928;8.474;2023-06-22T11:04:40;12.00;;;6.63;;
76065;SDS011;64763;48.928;8.474;2023-06-22T11:07:05;10.05;;;5.70;;
76065;SDS011;64763;48.928;8.474;2023-06-22T11:09:31;11.27;;;6.20;;
76065;SDS011;64763;48.928;8.474;2023-06-22T11:11:56;10.80;;;5.85;;
76065;SDS011;64763;48.928;8.474;2023-06-22T11:14:23;10.00;;;6.47;;
76065;SDS011;64763;48.928;8.474;2023-06-22T11:16:49;10.73;;;6.53;;
76065;SDS011;64763;48.928;8.474;2023-06-22T11:19:15;9.20;;;6.22;;
76065;SDS011;64763;48.928;8.474;2023-06-22T11:21:40;10.52;;;6.13;;
76065;SDS011;64763;48.928;8.474;2023-06-22T11:24:05;10.43;;;5.95;;
76065;SDS011;64763;48.928;8.474;2023-06-22T11:26:31;11.57;;;6.20;;
76065;SDS011;64763;48.928;8.474;2023-06-22T11:29:00;10.57;;;6.22;;
76065;SDS011;64763;48.928;8.474;2023-06-22T11:31:25;15.63;;;6.18;;
76065;SDS011;64763;48.928;8.474;2023-06-22T11:33:50;11.27;;;6.20;;
76065;SDS011;64763;48.928;8.474;2023-06-22T11:36:16;12.88;;;6.70;;
76065;SDS011;64763;48.928;8.474;2023-06-22T11:38:42;10.35;;;6.35;;
76065;SDS011;64763;48.928;8.474;2023-06-22T11:41:08;10.75;;;6.25;;
76065;SDS011;64763;48.928;8.474;2023-06-22T11:43:34;10.15;;;5.80;;
76065;SDS011;64763;48.928;8.474;2023-06-22T11:45:59;10.90;;;6.55;;
76065;SDS011;64763;48.928;8.474;2023-06-22T11:48:26;13.15;;;6.53;;
76065;SDS011;64763;48.928;8.474;2023-06-22T11:50:51;12.95;;;5.82;;
76065;SDS011;64763;48.928;8.474;2023-06-22T11:53:16;12.60;;;6.05;;
76065;SDS011;64763;48.928;8.474;2023-06-22T11:55:43;8.13;;;6.00;;
76065;SDS011;64763;48.928;8.474;2023-06-22T11:58:08;12.35;;;6.00;;
76065;SDS011;64763;48.928;8.474;2023-06-22T12:00:34;13.45;;;6.43;;
76065;SDS011;64763;48.928;8.474;2023-06-22T12:02:59;12.95;;;6.80;;
76065;SDS011;64763;48.928;8.474;2023-06-22T12:05:25;10.13;;;6.43;;
76065;SDS011;64763;48.928;8.474;2023-06-22T12:07:52;11.77;;;6.40;;
76065;SDS011;64763;48.928;8.474;2023-06-22T12:10:18;13.45;;;6.45;;
76065;SDS011;64763;48.928;8.474;2023-06-22T12:12:44;10.02;;;5.85;;
76065;SDS011;64763;48.928;8.474;2023-06-22T12:15:09;13.55;;;6.43;;
76065;SDS011;64763;48.928;8.474;2023-06-22T12:17:35;12.13;;;6.25;;
76065;SDS011;64763;48.928;8.474;2023-06-22T12:20:01;8.82;;;6.05;;
76065;SDS011;64763;48.928;8.474;2023-06-22T12:22:27;8.43;;;6.70;;
76065;SDS011;64763;48.928;8.474;2023-06-22T12:24:52;13.45;;;6.40;;
76065;SDS011;64763;48.928;8.474;2023-06-22T12:27:17;11.25;;;5.90;;
76065;SDS011;64763;48.928;8.474;2023-06-22T12:29:45;12.73;;;6.53;;
76065;SDS011;64763;48.928;8.474;2023-06-22T12:32:10;10.90;;;6.55;;
76065;SDS011;64763;48.928;8.474;2023-06-22T12:34:38;12.70;;;6.70;;
76065;SDS011;64763;48.928;8.474;2023-06-22T12:37:04;11.25;;;6.68;;
76065;SDS011;64763;48.928;8.474;2023-06-22T12:39:30;10.82;;;6.32;;
76065;SDS011;64763;48.928;8.474;2023-06-22T12:41:56;10.85;;;6.57;;
76065;SDS011;64763;48.928;8.474;2023-06-22T12:44:21;11.93;;;6.50;;
76065;SDS011;64763;48.928;8.474;2023-06-22T12:46:46;12.27;;;6.35;;
76065;SDS011;64763;48.928;8.474;2023-06-22T12:49:12;13.05;;;6.70;;
76065;SDS011;64763;48.928;8.474;2023-06-22T12:51:41;10.73;;;6.68;;
76065;SDS011;64763;48.928;8.474;2023-06-22T12:54:10;13.48;;;7.03;;
76065;SDS011;64763;48.928;8.474;2023-06-22T12:56:36;11.50;;;7.43;;
76065;SDS011;64763;48.928;8.474;2023-06-22T12:59:03;9.40;;;6.18;;
76065;SDS011;64763;48.928;8.474;2023-06-22T13:01:31;10.38;;;7.70;;
76065;SDS011;64763;48.928;8.474;2023-06-22T13:03:57;16.08;;;7.22;;
76065;SDS011;64763;48.928;8.474;2023-06-22T13:06:23;10.00;;;7.07;;
76065;SDS011;64763;48.928;8.474;2023-06-22T13:08:48;12.80;;;7.47;;
76065;SDS011;64763;48.928;8.474;2023-06-22T13:11:13;12.70;;;7.50;;
76065;SDS011;64763;48.928;8.474;2023-06-22T13:13:39;12.48;;;6.72;;
76065;SDS011;64763;48.928;8.474;2023-06-22T13:16:05;12.00;;;6.97;;
76065;SDS011;64763;48.928;8.474;2023-06-22T13:18:30;9.88;;;7.38;;
76065;SDS011;64763;48.928;8.474;2023-06-22T13:20:55;12.82;;;7.80;;
76065;SDS011;64763;48.928;8.474;2023-06-22T13:23:23;11.70;;;8.02;;
76065;SDS011;64763;48.928;8.474;2023-06-22T13:25:48;11.00;;;7.72;;
76065;SDS011;64763;48.928;8.474;2023-06-22T13:28:13;12.77;;;8.18;;
76065;SDS011;64763;48.928;8.474;2023-06-22T13:30:41;12.02;;;7.45;;
76065;SDS011;64763;48.928;8.474;2023-06-22T13:33:06;12.13;;;7.22;;
76065;SDS011;64763;48.928;8.474;2023-06-22T13:35:32;13.52;;;7.10;;
76065;SDS011;64763;48.928;8.474;2023-06-22T13:37:57;13.52;;;8.00;;
76065;SDS011;64763;48.928;8.474;2023-06-22T13:40:23;12.25;;;7.53;;
76065;SDS011;64763;48.928;8.474;2023-06-22T13:42:48;10.85;;;7.78;;
76065;SDS011;64763;48.928;8.474;2023-06-22T13:45:13;18.50;;;8.05;;
76065;SDS011;64763;48.928;8.474;2023-06-22T13:47:41;11.85;;;7.28;;
76065;SDS011;64763;48.928;8.474;2023-06-22T13:50:07;11.70;;;7.90;;
76065;SDS011;64763;48.928;8.474;2023-06-22T13:52:32;11.82;;;7.43;;
76065;SDS011;64763;48.928;8.474;2023-06-22T13:54:57;11.38;;;7.00;;
76065;SDS011;64763;48.928;8.474;2023-06-22T13:57:23;9.65;;;7.10;;
76065;SDS011;64763;48.928;8.474;2023-06-22T13:59:48;10.90;;;6.70;;
76065;SDS011;64763;48.928;8.474;2023-06-22T14:02:14;11.57;;;7.95;;
76065;SDS011;64763;48.928;8.474;2023-06-22T14:04:39;9.98;;;7.38;;
76065;SDS011;64763;48.928;8.474;2023-06-22T14:07:04;10.75;;;7.43;;
76065;SDS011;64763;48.928;8.474;2023-06-22T14:09:30;9.93;;;7.70;;
76065;SDS011;64763;48.928;8.474;2023-06-22T14:11:55;12.82;;;6.80;;
76065;SDS011;64763;48.928;8.474;2023-06-22T14:14:21;12.82;;;6.88;;
76065;SDS011;64763;48.928;8.474;2023-06-22T14:16:46;10.38;;;7.35;;
76065;SDS011;64763;48.928;8.474;2023-06-22T14:19:12;11.85;;;7.80;;
76065;SDS011;64763;48.928;8.474;2023-06-22T14:21:38;11.50;;;7.25;;
76065;SDS011;64763;48.928;8.474;2023-06-22T14:24:03;13.63;;;7.68;;
76065;SDS011;64763;48.928;8.474;2023-06-22T14:26:29;13.40;;;8.02;;
76065;SDS011;64763;48.928;8.474;2023-06-22T14:28:54;11.73;;;7.63;;
76065;SDS011;64763;48.928;8.474;2023-06-22T14:31:21;15.85;;;7.22;;
76065;SDS011;64763;48.928;8.474;2023-06-22T14:33:47;13.23;;;7.40;;
76065;SDS011;64763;48.928;8.474;2023-06-22T14:36:14;10.70;;;7.45;;